sensor_id;sensor_type;location;lat;lon;timestamp;temperature;humidity
8778;DHT22;4425;50.872;4.712;2023-04-15T00:00:10;9.90;99.90
8778;DHT22;4425;50.872;4.712;2023-04-15T00:02:38;9.90;99.90
8778;DHT22;4425;50.872;4.712;2023-04-15T00:05:06;9.90;99.90
8778;DHT22;4425;50.872;4.712;2023-04-15T00:07:33;9.90;99.90
8778;DHT22;4425;50.872;4.712;2023-04-15T00:10:00;9.90;99.90
8778;DHT22;4425;50.872;4.712;2023-04-15T00:12:27;9.90;99.90
8778;DHT22;4425;50.872;4.712;2023-04-15T00:14:55;9.90;99.90
8778;DHT22;4425;50.872;4.712;2023-04-15T00:17:23;9.90;99.90
8778;DHT22;4425;50.872;4.712;2023-04-15T00:19:52;10.00;99.90
8778;DHT22;4425;50.872;4.712;2023-04-15T00:22:19;10.00;99.90
8778;DHT22;4425;50.872;4.712;2023-04-15T00:24:47;9.90;99.90
8778;DHT22;4425;50.872;4.712;2023-04-15T00:27:14;9.90;99.90
8778;DHT22;4425;50.872;4.712;2023-04-15T00:29:41;9.90;99.90
8778;DHT22;4425;50.872;4.712;2023-04-15T00:32:08;9.90;99.90
8778;DHT22;4425;50.872;4.712;2023-04-15T00:34:35;9.90;99.90
8778;DHT22;4425;50.872;4.712;2023-04-15T00:37:03;10.00;99.90
8778;DHT22;4425;50.872;4.712;2023-04-15T00:39:30;9.90;99.90
8778;DHT22;4425;50.872;4.712;2023-04-15T00:41:57;9.90;99.90
8778;DHT22;4425;50.872;4.712;2023-04-15T00:44:24;9.90;99.90
8778;DHT22;4425;50.872;4.712;2023-04-15T00:46:52;9.90;99.90
8778;DHT22;4425;50.872;4.712;2023-04-15T00:49:19;9.90;99.90
8778;DHT22;4425;50.872;4.712;2023-04-15T00:51:46;9.90;99.90
8778;DHT22;4425;50.872;4.712;2023-04-15T00:54:15;9.90;99.90
8778;DHT22;4425;50.872;4.712;2023-04-15T00:56:42;10.00;99.90
8778;DHT22;4425;50.872;4.712;2023-04-15T00:59:09;9.80;99.90
8778;DHT22;4425;50.872;4.712;2023-04-15T01:01:36;9.80;99.90
8778;DHT22;4425;50.872;4.712;2023-04-15T01:04:04;9.80;99.90
8778;DHT22;4425;50.872;4.712;2023-04-15T01:06:31;9.80;99.90
8778;DHT22;4425;50.872;4.712;2023-04-15T01:08:59;9.80;99.90
8778;DHT22;4425;50.872;4.712;2023-04-15T01:11:28;9.80;99.90
8778;DHT22;4425;50.872;4.712;2023-04-15T01:13:57;9.80;99.90
8778;DHT22;4425;50.872;4.712;2023-04-15T01:16:24;9.80;99.90
8778;DHT22;4425;50.872;4.712;2023-04-15T01:18:53;9.80;99.90
8778;DHT22;4425;50.872;4.712;2023-04-15T01:21:20;9.90;99.90
8778;DHT22;4425;50.872;4.712;2023-04-15T01:23:48;9.90;99.90
8778;DHT22;4425;50.872;4.712;2023-04-15T01:26:17;9.90;99.90
8778;DHT22;4425;50.872;4.712;2023-04-15T01:28:46;10.10;99.90
8778;DHT22;4425;50.872;4.712;2023-04-15T01:31:15;10.30;99.90
8778;DHT22;4425;50.872;4.712;2023-04-15T01:33:43;10.30;99.90
8778;DHT22;4425;50.872;4.712;2023-04-15T01:36:10;10.40;99.90
8778;DHT22;4425;50.872;4.712;2023-04-15T01:38:37;10.30;99.90
8778;DHT22;4425;50.872;4.712;2023-04-15T01:41:04;10.30;99.90
8778;DHT22;4425;50.872;4.712;2023-04-15T01:43:34;10.40;99.90
8778;DHT22;4425;50.872;4.712;2023-04-15T01:46:01;10.50;99.90
8778;DHT22;4425;50.872;4.712;2023-04-15T01:48:28;10.20;99.90
8778;DHT22;4425;50.872;4.712;2023-04-15T01:50:58;10.20;99.90
8778;DHT22;4425;50.872;4.712;2023-04-15T01:53:25;10.30;99.90
8778;DHT22;4425;50.872;4.712;2023-04-15T01:55:53;10.20;99.90
8778;DHT22;4425;50.872;4.712;2023-04-15T01:58:20;10.20;99.90
8778;DHT22;4425;50.872;4.712;2023-04-15T02:00:48;10.10;99.90
8778;DHT22;4425;50.872;4.712;2023-04-15T02:03:15;10.10;99.90
8778;DHT22;4425;50.872;4.712;2023-04-15T02:05:42;9.80;99.90
8778;DHT22;4425;50.872;4.712;2023-04-15T02:08:10;9.80;99.90
8778;DHT22;4425;50.872;4.712;2023-04-15T02:10:37;10.00;99.90
8778;DHT22;4425;50.872;4.712;2023-04-15T02:13:04;9.90;99.90
8778;DHT22;4425;50.872;4.712;2023-04-15T02:15:31;10.00;99.90
8778;DHT22;4425;50.872;4.712;2023-04-15T02:17:59;9.90;99.90
8778;DHT22;4425;50.872;4.712;2023-04-15T02:20:26;9.90;99.90
8778;DHT22;4425;50.872;4.712;2023-04-15T02:22:55;9.90;99.90
8778;DHT22;4425;50.872;4.712;2023-04-15T02:25:22;9.90;99.90
8778;DHT22;4425;50.872;4.712;2023-04-15T02:27:49;9.80;99.90
8778;DHT22;4425;50.872;4.712;2023-04-15T02:30:16;9.90;99.90
8778;DHT22;4425;50.872;4.712;2023-04-15T02:32:43;9.80;99.90
8778;DHT22;4425;50.872;4.712;2023-04-15T02:35:12;9.80;99.90
8778;DHT22;4425;50.872;4.712;2023-04-15T02:37:39;9.80;99.90
8778;DHT22;4425;50.872;4.712;2023-04-15T02:40:08;9.80;99.90
8778;DHT22;4425;50.872;4.712;2023-04-15T02:42:37;9.80;99.90
8778;DHT22;4425;50.872;4.712;2023-04-15T02:45:05;9.70;99.90
8778;DHT22;4425;50.872;4.712;2023-04-15T02:47:33;9.80;99.90
8778;DHT22;4425;50.872;4.712;2023-04-15T02:50:01;9.80;99.90
8778;DHT22;4425;50.872;4.712;2023-04-15T02:52:30;9.80;99.90
8778;DHT22;4425;50.872;4.712;2023-04-15T02:54:57;9.80;99.90
8778;DHT22;4425;50.872;4.712;2023-04-15T02:57:25;9.90;99.90
8778;DHT22;4425;50.872;4.712;2023-04-15T02:59:54;10.00;99.90
8778;DHT22;4425;50.872;4.712;2023-04-15T03:02:21;9.90;99.90
8778;DHT22;4425;50.872;4.712;2023-04-15T03:04:48;10.10;99.90
8778;DHT22;4425;50.872;4.712;2023-04-15T03:07:16;9.80;99.90
8778;DHT22;4425;50.872;4.712;2023-04-15T03:09:44;10.00;99.90
8778;DHT22;4425;50.872;4.712;2023-04-15T03:12:12;10.00;99.90
8778;DHT22;4425;50.872;4.712;2023-04-15T03:14:40;10.10;99.90
8778;DHT22;4425;50.872;4.712;2023-04-15T03:17:07;10.00;99.90
8778;DHT22;4425;50.872;4.712;2023-04-15T03:19:34;10.00;99.90
8778;DHT22;4425;50.872;4.712;2023-04-15T03:22:01;10.00;99.90
8778;DHT22;4425;50.872;4.712;2023-04-15T03:24:28;10.00;99.90
8778;DHT22;4425;50.872;4.712;2023-04-15T03:26:58;9.90;99.90
8778;DHT22;4425;50.872;4.712;2023-04-15T03:29:27;9.80;99.90
8778;DHT22;4425;50.872;4.712;2023-04-15T03:31:54;10.10;99.90
8778;DHT22;4425;50.872;4.712;2023-04-15T03:34:22;10.00;99.90
8778;DHT22;4425;50.872;4.712;2023-04-15T03:36:49;10.00;99.90
8778;DHT22;4425;50.872;4.712;2023-04-15T03:39:16;9.90;99.90
8778;DHT22;4425;50.872;4.712;2023-04-15T03:41:43;9.90;99.90
8778;DHT22;4425;50.872;4.712;2023-04-15T03:44:12;9.90;99.90
8778;DHT22;4425;50.872;4.712;2023-04-15T03:46:40;10.10;99.90
8778;DHT22;4425;50.872;4.712;2023-04-15T03:49:07;10.00;99.90
8778;DHT22;4425;50.872;4.712;2023-04-15T03:51:34;10.10;99.90
8778;DHT22;4425;50.872;4.712;2023-04-15T03:54:01;10.20;99.90
8778;DHT22;4425;50.872;4.712;2023-04-15T03:56:28;10.20;99.90
8778;DHT22;4425;50.872;4.712;2023-04-15T03:58:55;10.30;99.90
8778;DHT22;4425;50.872;4.712;2023-04-15T04:01:23;10.10;99.90
8778;DHT22;4425;50.872;4.712;2023-04-15T04:03:50;10.00;99.90
8778;DHT22;4425;50.872;4.712;2023-04-15T04:06:17;9.90;99.90
8778;DHT22;4425;50.872;4.712;2023-04-15T04:08:46;10.00;99.90
8778;DHT22;4425;50.872;4.712;2023-04-15T04:11:13;10.10;99.90
8778;DHT22;4425;50.872;4.712;2023-04-15T04:13:41;10.20;99.90
8778;DHT22;4425;50.872;4.712;2023-04-15T04:16:08;10.20;99.90
8778;DHT22;4425;50.872;4.712;2023-04-15T04:18:37;10.10;99.90
8778;DHT22;4425;50.872;4.712;2023-04-15T04:21:04;10.20;99.90
8778;DHT22;4425;50.872;4.712;2023-04-15T04:23:31;10.20;99.90
8778;DHT22;4425;50.872;4.712;2023-04-15T04:25:58;10.20;99.90
8778;DHT22;4425;50.872;4.712;2023-04-15T04:28:25;10.10;99.90
8778;DHT22;4425;50.872;4.712;2023-04-15T04:30:52;10.10;99.90
8778;DHT22;4425;50.872;4.712;2023-04-15T04:33:20;10.00;99.90
8778;DHT22;4425;50.872;4.712;2023-04-15T04:35:49;9.90;99.90
8778;DHT22;4425;50.872;4.712;2023-04-15T04:38:16;10.00;99.90
8778;DHT22;4425;50.872;4.712;2023-04-15T04:40:43;9.90;99.90
8778;DHT22;4425;50.872;4.712;2023-04-15T04:43:10;9.90;99.90
8778;DHT22;4425;50.872;4.712;2023-04-15T04:45:37;9.90;99.90
8778;DHT22;4425;50.872;4.712;2023-04-15T04:48:04;9.80;99.90
8778;DHT22;4425;50.872;4.712;2023-04-15T04:50:33;9.70;99.90
8778;DHT22;4425;50.872;4.712;2023-04-15T04:53:01;9.70;99.90
8778;DHT22;4425;50.872;4.712;2023-04-15T04:55:28;9.40;99.90
8778;DHT22;4425;50.872;4.712;2023-04-15T04:57:56;9.40;99.90
8778;DHT22;4425;50.872;4.712;2023-04-15T05:00:23;9.40;99.90
8778;DHT22;4425;50.872;4.712;2023-04-15T05:02:50;9.30;99.90
8778;DHT22;4425;50.872;4.712;2023-04-15T05:05:17;9.30;99.90
8778;DHT22;4425;50.872;4.712;2023-04-15T05:07:44;9.30;99.90
8778;DHT22;4425;50.872;4.712;2023-04-15T05:10:13;9.20;99.90
8778;DHT22;4425;50.872;4.712;2023-04-15T05:12:42;9.20;99.90
8778;DHT22;4425;50.872;4.712;2023-04-15T05:15:09;9.30;99.90
8778;DHT22;4425;50.872;4.712;2023-04-15T05:17:36;9.30;99.90
8778;DHT22;4425;50.872;4.712;2023-04-15T05:20:04;9.40;99.90
8778;DHT22;4425;50.872;4.712;2023-04-15T05:22:32;9.40;99.90
8778;DHT22;4425;50.872;4.712;2023-04-15T05:24:59;9.20;99.90
8778;DHT22;4425;50.872;4.712;2023-04-15T05:27:28;9.40;99.90
8778;DHT22;4425;50.872;4.712;2023-04-15T05:29:55;9.60;99.90
8778;DHT22;4425;50.872;4.712;2023-04-15T05:32:22;9.60;99.90
8778;DHT22;4425;50.872;4.712;2023-04-15T05:34:49;9.50;99.90
8778;DHT22;4425;50.872;4.712;2023-04-15T05:37:16;9.40;99.90
8778;DHT22;4425;50.872;4.712;2023-04-15T05:39:45;9.50;99.90
8778;DHT22;4425;50.872;4.712;2023-04-15T05:42:13;9.40;99.90
8778;DHT22;4425;50.872;4.712;2023-04-15T05:44:41;9.20;99.90
8778;DHT22;4425;50.872;4.712;2023-04-15T05:47:08;9.30;99.90
8778;DHT22;4425;50.872;4.712;2023-04-15T05:49:35;9.50;99.90
8778;DHT22;4425;50.872;4.712;2023-04-15T05:52:02;9.50;99.90
8778;DHT22;4425;50.872;4.712;2023-04-15T05:54:29;9.60;99.90
8778;DHT22;4425;50.872;4.712;2023-04-15T05:56:56;9.50;99.90
8778;DHT22;4425;50.872;4.712;2023-04-15T05:59:23;9.40;99.90
8778;DHT22;4425;50.872;4.712;2023-04-15T06:01:52;9.50;99.90
8778;DHT22;4425;50.872;4.712;2023-04-15T06:04:19;9.40;99.90
8778;DHT22;4425;50.872;4.712;2023-04-15T06:06:46;9.50;99.90
8778;DHT22;4425;50.872;4.712;2023-04-15T06:09:13;9.50;99.90
8778;DHT22;4425;50.872;4.712;2023-04-15T06:11:40;9.50;99.90
8778;DHT22;4425;50.872;4.712;2023-04-15T06:14:07;9.50;99.90
8778;DHT22;4425;50.872;4.712;2023-04-15T06:16:34;9.40;99.90
8778;DHT22;4425;50.872;4.712;2023-04-15T06:19:03;9.40;99.90
8778;DHT22;4425;50.872;4.712;2023-04-15T06:21:30;9.30;99.90
8778;DHT22;4425;50.872;4.712;2023-04-15T06:23:58;9.40;99.90
8778;DHT22;4425;50.872;4.712;2023-04-15T06:26:25;9.60;99.90
8778;DHT22;4425;50.872;4.712;2023-04-15T06:28:53;9.60;99.90
8778;DHT22;4425;50.872;4.712;2023-04-15T06:31:20;9.70;99.90
8778;DHT22;4425;50.872;4.712;2023-04-15T06:33:47;9.80;99.90
8778;DHT22;4425;50.872;4.712;2023-04-15T06:36:15;9.70;99.90
8778;DHT22;4425;50.872;4.712;2023-04-15T06:38:42;9.70;99.90
8778;DHT22;4425;50.872;4.712;2023-04-15T06:41:09;9.70;99.90
8778;DHT22;4425;50.872;4.712;2023-04-15T06:43:36;9.90;99.90
8778;DHT22;4425;50.872;4.712;2023-04-15T06:46:03;10.20;99.90
8778;DHT22;4425;50.872;4.712;2023-04-15T06:48:30;10.40;99.90
8778;DHT22;4425;50.872;4.712;2023-04-15T06:50:57;10.60;99.90
8778;DHT22;4425;50.872;4.712;2023-04-15T06:53:26;10.80;99.90
8778;DHT22;4425;50.872;4.712;2023-04-15T06:55:54;11.20;99.90
8778;DHT22;4425;50.872;4.712;2023-04-15T06:58:21;11.60;99.90
8778;DHT22;4425;50.872;4.712;2023-04-15T07:00:48;12.10;99.90
8778;DHT22;4425;50.872;4.712;2023-04-15T07:03:15;12.40;99.90
8778;DHT22;4425;50.872;4.712;2023-04-15T07:05:42;12.30;99.90
8778;DHT22;4425;50.872;4.712;2023-04-15T07:08:09;12.10;99.90
8778;DHT22;4425;50.872;4.712;2023-04-15T07:10:38;12.30;99.90
8778;DHT22;4425;50.872;4.712;2023-04-15T07:13:05;12.00;99.90
8778;DHT22;4425;50.872;4.712;2023-04-15T07:15:33;12.00;99.90
8778;DHT22;4425;50.872;4.712;2023-04-15T07:18:00;12.50;99.90
8778;DHT22;4425;50.872;4.712;2023-04-15T07:20:27;13.40;99.90
8778;DHT22;4425;50.872;4.712;2023-04-15T07:22:54;14.60;99.90
8778;DHT22;4425;50.872;4.712;2023-04-15T07:25:22;14.80;99.90
8778;DHT22;4425;50.872;4.712;2023-04-15T07:27:51;16.30;99.90
8778;DHT22;4425;50.872;4.712;2023-04-15T07:30:18;17.00;99.90
8778;DHT22;4425;50.872;4.712;2023-04-15T07:32:45;17.40;99.90
8778;DHT22;4425;50.872;4.712;2023-04-15T07:35:12;17.80;99.90
8778;DHT22;4425;50.872;4.712;2023-04-15T07:37:39;17.60;99.90
8778;DHT22;4425;50.872;4.712;2023-04-15T07:40:09;17.30;99.90
8778;DHT22;4425;50.872;4.712;2023-04-15T07:42:39;17.40;99.90
8778;DHT22;4425;50.872;4.712;2023-04-15T07:45:09;17.70;99.90
8778;DHT22;4425;50.872;4.712;2023-04-15T07:47:36;18.00;99.90
8778;DHT22;4425;50.872;4.712;2023-04-15T07:50:03;18.50;99.90
8778;DHT22;4425;50.872;4.712;2023-04-15T07:52:31;19.50;99.90
8778;DHT22;4425;50.872;4.712;2023-04-15T07:55:04;20.40;98.70
8778;DHT22;4425;50.872;4.712;2023-04-15T07:57:31;21.80;97.00
8778;DHT22;4425;50.872;4.712;2023-04-15T07:59:59;22.10;95.60
8778;DHT22;4425;50.872;4.712;2023-04-15T08:02:28;21.00;96.10
8778;DHT22;4425;50.872;4.712;2023-04-15T08:04:56;22.00;95.00
8778;DHT22;4425;50.872;4.712;2023-04-15T08:07:23;21.40;94.30
8778;DHT22;4425;50.872;4.712;2023-04-15T08:09:51;21.40;95.00
8778;DHT22;4425;50.872;4.712;2023-04-15T08:12:18;22.90;94.30
8778;DHT22;4425;50.872;4.712;2023-04-15T08:14:45;23.40;92.70
8778;DHT22;4425;50.872;4.712;2023-04-15T08:17:12;23.30;92.10
8778;DHT22;4425;50.872;4.712;2023-04-15T08:19:41;21.70;92.90
8778;DHT22;4425;50.872;4.712;2023-04-15T08:22:09;21.60;93.40
8778;DHT22;4425;50.872;4.712;2023-04-15T08:24:36;20.50;93.50
8778;DHT22;4425;50.872;4.712;2023-04-15T08:27:04;19.90;94.10
8778;DHT22;4425;50.872;4.712;2023-04-15T08:29:32;19.20;94.80
8778;DHT22;4425;50.872;4.712;2023-04-15T08:32:00;18.70;95.80
8778;DHT22;4425;50.872;4.712;2023-04-15T08:34:28;18.00;95.90
8778;DHT22;4425;50.872;4.712;2023-04-15T08:36:57;18.30;95.40
8778;DHT22;4425;50.872;4.712;2023-04-15T08:39:24;18.00;96.40
8778;DHT22;4425;50.872;4.712;2023-04-15T08:41:55;17.30;96.50
8778;DHT22;4425;50.872;4.712;2023-04-15T08:44:25;17.40;97.10
8778;DHT22;4425;50.872;4.712;2023-04-15T08:46:55;18.00;96.80
8778;DHT22;4425;50.872;4.712;2023-04-15T08:49:25;19.80;95.50
8778;DHT22;4425;50.872;4.712;2023-04-15T08:51:54;19.90;94.40
8778;DHT22;4425;50.872;4.712;2023-04-15T08:54:23;20.80;95.00
8778;DHT22;4425;50.872;4.712;2023-04-15T08:56:51;20.30;94.20
8778;DHT22;4425;50.872;4.712;2023-04-15T08:59:19;20.00;93.60
8778;DHT22;4425;50.872;4.712;2023-04-15T09:01:47;19.50;95.10
8778;DHT22;4425;50.872;4.712;2023-04-15T09:04:15;18.00;96.80
8778;DHT22;4425;50.872;4.712;2023-04-15T09:06:42;16.60;98.40
8778;DHT22;4425;50.872;4.712;2023-04-15T09:09:11;15.70;99.90
8778;DHT22;4425;50.872;4.712;2023-04-15T09:11:40;15.60;99.90
8778;DHT22;4425;50.872;4.712;2023-04-15T09:14:08;15.60;99.90
8778;DHT22;4425;50.872;4.712;2023-04-15T09:16:55;15.10;99.90
8778;DHT22;4425;50.872;4.712;2023-04-15T09:19:24;15.10;99.90
8778;DHT22;4425;50.872;4.712;2023-04-15T09:21:53;14.90;99.90
8778;DHT22;4425;50.872;4.712;2023-04-15T09:24:21;15.10;99.90
8778;DHT22;4425;50.872;4.712;2023-04-15T09:26:53;14.90;99.90
8778;DHT22;4425;50.872;4.712;2023-04-15T09:29:23;15.00;99.90
8778;DHT22;4425;50.872;4.712;2023-04-15T09:31:50;14.70;99.90
8778;DHT22;4425;50.872;4.712;2023-04-15T09:34:17;14.70;99.90
8778;DHT22;4425;50.872;4.712;2023-04-15T09:36:56;14.60;99.90
8778;DHT22;4425;50.872;4.712;2023-04-15T09:39:23;14.90;99.90
8778;DHT22;4425;50.872;4.712;2023-04-15T09:42:08;14.80;99.90
8778;DHT22;4425;50.872;4.712;2023-04-15T09:44:37;14.70;99.90
8778;DHT22;4425;50.872;4.712;2023-04-15T09:47:04;14.70;99.90
8778;DHT22;4425;50.872;4.712;2023-04-15T09:49:31;14.90;99.90
8778;DHT22;4425;50.872;4.712;2023-04-15T09:51:59;14.90;99.90
8778;DHT22;4425;50.872;4.712;2023-04-15T09:54:35;15.00;99.90
8778;DHT22;4425;50.872;4.712;2023-04-15T09:57:07;14.90;99.90
8778;DHT22;4425;50.872;4.712;2023-04-15T09:59:36;15.00;99.90
8778;DHT22;4425;50.872;4.712;2023-04-15T10:02:04;15.00;99.90
8778;DHT22;4425;50.872;4.712;2023-04-15T10:04:34;14.50;99.90
8778;DHT22;4425;50.872;4.712;2023-04-15T10:07:03;15.00;99.90
8778;DHT22;4425;50.872;4.712;2023-04-15T10:09:31;15.10;99.90
8778;DHT22;4425;50.872;4.712;2023-04-15T10:11:59;15.10;99.90
8778;DHT22;4425;50.872;4.712;2023-04-15T10:14:33;15.10;99.90
8778;DHT22;4425;50.872;4.712;2023-04-15T10:17:04;15.10;99.90
8778;DHT22;4425;50.872;4.712;2023-04-15T10:19:32;15.10;99.90
8778;DHT22;4425;50.872;4.712;2023-04-15T10:21:59;15.00;99.90
8778;DHT22;4425;50.872;4.712;2023-04-15T10:24:49;15.00;99.90
8778;DHT22;4425;50.872;4.712;2023-04-15T10:27:17;15.00;98.70
8778;DHT22;4425;50.872;4.712;2023-04-15T10:29:45;15.10;98.40
8778;DHT22;4425;50.872;4.712;2023-04-15T10:32:13;15.20;98.60
8778;DHT22;4425;50.872;4.712;2023-04-15T10:34:41;15.40;97.00
8778;DHT22;4425;50.872;4.712;2023-04-15T10:37:10;15.60;97.00
8778;DHT22;4425;50.872;4.712;2023-04-15T10:39:41;15.70;98.30
8778;DHT22;4425;50.872;4.712;2023-04-15T10:42:12;15.50;99.40
8778;DHT22;4425;50.872;4.712;2023-04-15T10:44:41;15.60;99.80
8778;DHT22;4425;50.872;4.712;2023-04-15T10:47:13;15.50;99.90
8778;DHT22;4425;50.872;4.712;2023-04-15T10:49:45;15.70;99.50
8778;DHT22;4425;50.872;4.712;2023-04-15T10:52:14;15.70;97.70
8778;DHT22;4425;50.872;4.712;2023-04-15T10:54:41;15.60;97.00
8778;DHT22;4425;50.872;4.712;2023-04-15T10:57:15;15.30;97.20
8778;DHT22;4425;50.872;4.712;2023-04-15T11:00:08;15.30;97.30
8778;DHT22;4425;50.872;4.712;2023-04-15T11:02:44;15.20;97.90
8778;DHT22;4425;50.872;4.712;2023-04-15T11:05:12;15.40;98.40
8778;DHT22;4425;50.872;4.712;2023-04-15T11:07:47;15.50;98.60
8778;DHT22;4425;50.872;4.712;2023-04-15T11:10:51;15.30;99.00
8778;DHT22;4425;50.872;4.712;2023-04-15T11:13:24;15.50;99.40
8778;DHT22;4425;50.872;4.712;2023-04-15T11:16:00;15.60;99.00
8778;DHT22;4425;50.872;4.712;2023-04-15T11:18:29;15.60;98.10
8778;DHT22;4425;50.872;4.712;2023-04-15T11:20:59;15.50;96.40
8778;DHT22;4425;50.872;4.712;2023-04-15T11:23:28;15.70;94.50
8778;DHT22;4425;50.872;4.712;2023-04-15T11:26:00;15.80;92.60
8778;DHT22;4425;50.872;4.712;2023-04-15T11:28:30;15.90;93.20
8778;DHT22;4425;50.872;4.712;2023-04-15T11:31:05;16.10;93.30
8778;DHT22;4425;50.872;4.712;2023-04-15T11:33:33;15.90;93.10
8778;DHT22;4425;50.872;4.712;2023-04-15T11:36:01;16.00;93.50
8778;DHT22;4425;50.872;4.712;2023-04-15T11:38:28;16.00;92.10
8778;DHT22;4425;50.872;4.712;2023-04-15T11:40:57;15.90;90.40
8778;DHT22;4425;50.872;4.712;2023-04-15T11:43:26;15.90;89.00
8778;DHT22;4425;50.872;4.712;2023-04-15T11:45:56;15.70;90.00
8778;DHT22;4425;50.872;4.712;2023-04-15T11:48:25;15.70;92.60
8778;DHT22;4425;50.872;4.712;2023-04-15T11:50:54;15.70;92.80
8778;DHT22;4425;50.872;4.712;2023-04-15T11:53:22;15.50;90.50
8778;DHT22;4425;50.872;4.712;2023-04-15T11:55:51;15.50;92.00
8778;DHT22;4425;50.872;4.712;2023-04-15T11:58:20;15.60;92.80
8778;DHT22;4425;50.872;4.712;2023-04-15T12:00:49;15.60;92.90
8778;DHT22;4425;50.872;4.712;2023-04-15T12:03:24;15.80;93.20
8778;DHT22;4425;50.872;4.712;2023-04-15T12:06:12;15.90;93.20
8778;DHT22;4425;50.872;4.712;2023-04-15T12:09:08;15.90;93.70
8778;DHT22;4425;50.872;4.712;2023-04-15T12:11:38;16.00;92.80
8778;DHT22;4425;50.872;4.712;2023-04-15T12:14:11;16.00;94.00
8778;DHT22;4425;50.872;4.712;2023-04-15T12:16:40;16.10;92.80
8778;DHT22;4425;50.872;4.712;2023-04-15T12:19:11;16.30;92.70
8778;DHT22;4425;50.872;4.712;2023-04-15T12:21:40;16.30;91.30
8778;DHT22;4425;50.872;4.712;2023-04-15T12:24:09;16.30;92.10
8778;DHT22;4425;50.872;4.712;2023-04-15T12:26:42;16.20;92.40
8778;DHT22;4425;50.872;4.712;2023-04-15T12:29:10;16.30;93.30
8778;DHT22;4425;50.872;4.712;2023-04-15T12:31:47;16.30;93.20
8778;DHT22;4425;50.872;4.712;2023-04-15T12:34:17;16.40;93.00
8778;DHT22;4425;50.872;4.712;2023-04-15T12:36:44;16.50;92.70
8778;DHT22;4425;50.872;4.712;2023-04-15T12:39:12;16.50;92.90
8778;DHT22;4425;50.872;4.712;2023-04-15T12:41:38;16.60;92.80
8778;DHT22;4425;50.872;4.712;2023-04-15T12:44:06;16.40;91.20
8778;DHT22;4425;50.872;4.712;2023-04-15T12:46:33;16.40;91.10
8778;DHT22;4425;50.872;4.712;2023-04-15T12:49:01;16.30;91.00
8778;DHT22;4425;50.872;4.712;2023-04-15T12:51:29;16.20;91.10
8778;DHT22;4425;50.872;4.712;2023-04-15T12:53:57;16.20;91.50
8778;DHT22;4425;50.872;4.712;2023-04-15T12:56:24;16.30;91.30
8778;DHT22;4425;50.872;4.712;2023-04-15T12:58:52;16.20;90.80
8778;DHT22;4425;50.872;4.712;2023-04-15T13:01:20;16.30;91.70
8778;DHT22;4425;50.872;4.712;2023-04-15T13:03:46;16.20;92.30
8778;DHT22;4425;50.872;4.712;2023-04-15T13:06:15;16.30;93.20
8778;DHT22;4425;50.872;4.712;2023-04-15T13:08:43;16.40;92.80
8778;DHT22;4425;50.872;4.712;2023-04-15T13:11:10;16.60;91.40
8778;DHT22;4425;50.872;4.712;2023-04-15T13:13:37;16.50;91.20
8778;DHT22;4425;50.872;4.712;2023-04-15T13:16:07;16.50;91.90
8778;DHT22;4425;50.872;4.712;2023-04-15T13:18:34;16.70;92.60
8778;DHT22;4425;50.872;4.712;2023-04-15T13:21:01;16.70;93.20
8778;DHT22;4425;50.872;4.712;2023-04-15T13:23:28;16.50;93.30
8778;DHT22;4425;50.872;4.712;2023-04-15T13:25:57;16.30;93.10
8778;DHT22;4425;50.872;4.712;2023-04-15T13:28:24;16.40;92.10
8778;DHT22;4425;50.872;4.712;2023-04-15T13:30:51;16.40;91.70
8778;DHT22;4425;50.872;4.712;2023-04-15T13:33:19;16.30;92.00
8778;DHT22;4425;50.872;4.712;2023-04-15T13:35:46;16.40;92.00
8778;DHT22;4425;50.872;4.712;2023-04-15T13:38:13;16.40;90.80
8778;DHT22;4425;50.872;4.712;2023-04-15T13:40:41;16.40;90.60
8778;DHT22;4425;50.872;4.712;2023-04-15T13:43:09;16.50;90.50
8778;DHT22;4425;50.872;4.712;2023-04-15T13:45:37;16.40;91.40
8778;DHT22;4425;50.872;4.712;2023-04-15T13:48:04;16.30;93.20
8778;DHT22;4425;50.872;4.712;2023-04-15T13:50:31;16.40;93.30
8778;DHT22;4425;50.872;4.712;2023-04-15T13:52:58;16.50;93.90
8778;DHT22;4425;50.872;4.712;2023-04-15T13:55:25;16.50;93.80
8778;DHT22;4425;50.872;4.712;2023-04-15T13:57:52;16.30;94.00
8778;DHT22;4425;50.872;4.712;2023-04-15T14:00:21;16.50;94.10
8778;DHT22;4425;50.872;4.712;2023-04-15T14:02:48;16.70;93.90
8778;DHT22;4425;50.872;4.712;2023-04-15T14:05:15;16.90;94.00
8778;DHT22;4425;50.872;4.712;2023-04-15T14:07:42;16.60;95.30
8778;DHT22;4425;50.872;4.712;2023-04-15T14:10:09;16.40;96.00
8778;DHT22;4425;50.872;4.712;2023-04-15T14:12:36;16.50;96.60
8778;DHT22;4425;50.872;4.712;2023-04-15T14:15:03;16.30;96.20
8778;DHT22;4425;50.872;4.712;2023-04-15T14:17:32;16.40;96.10
8778;DHT22;4425;50.872;4.712;2023-04-15T14:19:59;16.50;95.50
8778;DHT22;4425;50.872;4.712;2023-04-15T14:22:26;16.40;95.00
8778;DHT22;4425;50.872;4.712;2023-04-15T14:24:53;16.50;95.30
8778;DHT22;4425;50.872;4.712;2023-04-15T14:27:20;16.70;95.60
8778;DHT22;4425;50.872;4.712;2023-04-15T14:29:48;16.80;95.50
8778;DHT22;4425;50.872;4.712;2023-04-15T14:32:15;16.80;95.10
8778;DHT22;4425;50.872;4.712;2023-04-15T14:34:43;16.70;93.50
8778;DHT22;4425;50.872;4.712;2023-04-15T14:37:11;16.80;95.10
8778;DHT22;4425;50.872;4.712;2023-04-15T14:39:37;16.50;96.00
8778;DHT22;4425;50.872;4.712;2023-04-15T14:42:05;16.40;96.30
8778;DHT22;4425;50.872;4.712;2023-04-15T14:44:31;16.50;96.00
8778;DHT22;4425;50.872;4.712;2023-04-15T14:46:58;16.30;96.60
8778;DHT22;4425;50.872;4.712;2023-04-15T14:49:25;16.40;97.00
8778;DHT22;4425;50.872;4.712;2023-04-15T14:51:55;16.30;97.50
8778;DHT22;4425;50.872;4.712;2023-04-15T14:54:24;16.40;97.70
8778;DHT22;4425;50.872;4.712;2023-04-15T14:56:51;16.40;96.60
8778;DHT22;4425;50.872;4.712;2023-04-15T14:59:18;16.20;96.60
8778;DHT22;4425;50.872;4.712;2023-04-15T15:01:45;16.20;96.00
8778;DHT22;4425;50.872;4.712;2023-04-15T15:04:13;16.00;95.10
8778;DHT22;4425;50.872;4.712;2023-04-15T15:06:40;15.80;94.80
8778;DHT22;4425;50.872;4.712;2023-04-15T15:09:09;15.90;95.00
8778;DHT22;4425;50.872;4.712;2023-04-15T15:11:37;16.00;95.70
8778;DHT22;4425;50.872;4.712;2023-04-15T15:14:03;15.90;95.70
8778;DHT22;4425;50.872;4.712;2023-04-15T15:16:30;16.10;95.70
8778;DHT22;4425;50.872;4.712;2023-04-15T15:18:57;16.10;95.80
8778;DHT22;4425;50.872;4.712;2023-04-15T15:21:24;15.90;94.00
8778;DHT22;4425;50.872;4.712;2023-04-15T15:23:52;15.80;94.30
8778;DHT22;4425;50.872;4.712;2023-04-15T15:26:20;15.80;95.80
8778;DHT22;4425;50.872;4.712;2023-04-15T15:28:48;15.80;96.60
8778;DHT22;4425;50.872;4.712;2023-04-15T15:31:15;15.80;97.40
8778;DHT22;4425;50.872;4.712;2023-04-15T15:33:42;15.80;97.50
8778;DHT22;4425;50.872;4.712;2023-04-15T15:36:09;15.80;97.60
8778;DHT22;4425;50.872;4.712;2023-04-15T15:38:36;15.80;96.80
8778;DHT22;4425;50.872;4.712;2023-04-15T15:41:03;15.90;95.90
8778;DHT22;4425;50.872;4.712;2023-04-15T15:43:31;15.90;95.60
8778;DHT22;4425;50.872;4.712;2023-04-15T15:45:59;15.80;96.50
8778;DHT22;4425;50.872;4.712;2023-04-15T15:48:26;15.90;97.40
8778;DHT22;4425;50.872;4.712;2023-04-15T15:50:53;16.00;97.70
8778;DHT22;4425;50.872;4.712;2023-04-15T15:53:20;15.90;97.60
8778;DHT22;4425;50.872;4.712;2023-04-15T15:55:49;15.70;98.00
8778;DHT22;4425;50.872;4.712;2023-04-15T15:58:16;15.80;98.00
8778;DHT22;4425;50.872;4.712;2023-04-15T16:00:44;15.90;97.80
8778;DHT22;4425;50.872;4.712;2023-04-15T16:03:12;15.60;97.70
8778;DHT22;4425;50.872;4.712;2023-04-15T16:05:39;15.40;98.00
8778;DHT22;4425;50.872;4.712;2023-04-15T16:08:06;15.40;98.20
8778;DHT22;4425;50.872;4.712;2023-04-15T16:10:32;15.30;97.70
8778;DHT22;4425;50.872;4.712;2023-04-15T16:12:59;15.50;98.00